Galaxy Ace — D5CZ7 — position and weather

sailwx.info

Track history (hours):
 
Tides and Currents Weather Stations Pressure Air Temp Water Temp Dewpoint Dewpoint Depression Visibility Wind Speed Wind Dir Waves Ship Positions

Galaxy Ace

Last reported at 2017-Nov-18 23:31 UTC. Time now 2017-Nov-24 20:47 UTC.
Position S 27°38' E 153°57'.

Length 199 m; draft 7.7 m.

Type: Cargo ship. MMSI: 636015819.

Date/timePositionNaut miles runAvg speedWind from/ knotsBaromVisibWave heightAir tempDewpointWater temp
2017-Nov-18 23:31S 27°38' E 153°57'018.2
2017-Nov-18 23:30S 27°38' E 153°57'917.5
2017-Nov-18 23:00S 27°47' E 153°56'917.3
2017-Nov-18 22:30S 27°55' E 153°56'917.6
2017-Nov-18 22:01S 28°04' E 153°56'917.4
2017-Nov-18 21:30S 28°13' E 153°55'917.4
2017-Nov-18 21:00S 28°22' E 153°55'917.3
2017-Nov-18 20:30S 28°30' E 153°54'817.0
2017-Nov-18 20:00S 28°39' E 153°54'23916.4
2017-Nov-18 05:26S 32°31' E 152°48'717.2
2017-Nov-18 05:01S 32°38' E 152°45'917.0
2017-Nov-18 04:30S 32°46' E 152°41'917.0
2017-Nov-18 04:00S 32°53' E 152°37'917.6
2017-Nov-18 03:31S 33°02' E 152°33'917.7
2017-Nov-18 03:00S 33°10' E 152°29'917.9
2017-Nov-18 02:30S 33°18' E 152°25'33017.1
2017-Nov-17 07:15S 38°12' E 149°20'617.6
2017-Nov-17 06:54S 38°16' E 149°14'717.0
2017-Nov-17 06:30S 38°20' E 149°07'817.1
2017-Nov-17 06:00S 38°24' E 148°58'917.2
2017-Nov-17 05:29S 38°30' E 148°48'817.1
2017-Nov-17 05:00S 38°34' E 148°40'917.3
2017-Nov-17 04:29S 38°39' E 148°30'917.4
2017-Nov-17 04:00S 38°43' E 148°21'917.9
2017-Nov-17 03:30S 38°47' E 148°11'1618.6
2017-Nov-17 02:37S 38°53' E 147°51'218.7
2017-Nov-17 02:30S 38°54' E 147°48'1018.5
2017-Nov-17 01:58S 38°57' E 147°36'1218.3
2017-Nov-17 01:20S 39°02' E 147°23'13114.6
2017-Nov-16 16:21S 38°18' E 144°44'1512.7
2017-Nov-16 15:10S 38°06' E 144°55'419.0
2017-Nov-16 14:58S 38°02' E 144°55'716.1
2017-Nov-16 14:30S 37°55' E 144°55'4 8.2
2017-Nov-16 14:01S 37°51' E 144°54'0 0.0
2017-Nov-16 13:29S 37°51' E 144°54'0 0.0
2017-Nov-16 12:38S 37°51' E 144°54'0 0.0
2017-Nov-16 12:14S 37°51' E 144°54'0 0.0
2017-Nov-16 11:53S 37°51' E 144°54'0 0.0
2017-Nov-16 10:32S 37°51' E 144°54'0 0.0
2017-Nov-16 09:32S 37°51' E 144°54'0 0.0
2017-Nov-16 09:29S 37°51' E 144°54'0 0.0
2017-Nov-16 06:11S 37°51' E 144°54'0 0.1
2017-Nov-15 22:28S 37°51' E 144°55'2 4.8
2017-Nov-15 22:00S 37°53' E 144°56'713.4
2017-Nov-15 21:29S 37°60' E 144°55'1216.2
2017-Nov-15 20:47S 38°11' E 144°55'11410.5
2017-Nov-15 09:55S 38°59' E 147°08'716.1
2017-Nov-15 09:30S 38°57' E 147°16'816.2
2017-Nov-15 09:00S 38°55' E 147°26'1016.7
2017-Nov-15 08:25S 38°51' E 147°38'916.7
2017-Nov-15 07:54S 38°49' E 147°48'816.3
2017-Nov-15 07:27S 38°46' E 147°57'916.4
2017-Nov-15 06:55S 38°43' E 148°08'716.5
2017-Nov-15 06:30S 38°40' E 148°16'816.6
2017-Nov-15 05:59S 38°35' E 148°24'917.2
2017-Nov-15 05:29S 38°30' E 148°33'1218.0
2017-Nov-15 04:50S 38°23' E 148°45'1519.9
2017-Nov-15 04:04S 38°16' E 149°03'919.8
2017-Nov-15 03:37S 38°11' E 149°12'319.7
2017-Nov-15 03:29S 38°10' E 149°15'1020.1
2017-Nov-15 03:00S 38°04' E 149°25'1120.1
2017-Nov-15 02:28S 37°58' E 149°36'256 4.9
2017-Nov-12 22:34S 34°01' E 151°34'118.5
2017-Nov-12 22:30S 33°60' E 151°34'5518.4
2017-Nov-12 19:31S 33°15' E 152°13'017.9
2017-Nov-12 19:30S 33°14' E 152°13'918.5
2017-Nov-12 19:01S 33°07' E 152°19'918.6
2017-Nov-12 18:30S 32°59' E 152°25'918.8
2017-Nov-12 18:00S 32°52' E 152°32'918.7
2017-Nov-12 17:30S 32°44' E 152°38'918.6
2017-Nov-12 17:01S 32°36' E 152°44'24519.2
2017-Nov-12 04:13S 28°38' E 153°54'519.5
2017-Nov-12 03:56S 28°33' E 153°54'819.3
2017-Nov-12 03:30S 28°25' E 153°53'1019.3
2017-Nov-12 03:01S 28°15' E 153°52'1019.1
2017-Nov-12 02:31S 28°06' E 153°52'1019.2
2017-Nov-12 02:01S 27°56' E 153°51'1019.3
2017-Nov-12 01:31S 27°47' E 153°50'1019.0
2017-Nov-12 01:00S 27°37' E 153°49'918.8
2017-Nov-12 00:31S 27°28' E 153°47'918.4
2017-Nov-12 00:01S 27°19' E 153°44'1518.3
2017-Nov-11 23:10S 27°05' E 153°38'1818.0
2017-Nov-11 22:12S 26°52' E 153°25'618.3
2017-Nov-11 21:53S 26°48' E 153°20'10 6.8
2017-Nov-11 20:23S 26°53' E 153°10'818.3
2017-Nov-11 19:58S 26°60' E 153°14'817.1
2017-Nov-11 19:30S 27°06' E 153°20'817.0
2017-Nov-11 19:00S 27°15' E 153°19'815.7
2017-Nov-11 18:31S 27°19' E 153°12'4 8.5
2017-Nov-11 18:01S 27°23' E 153°10'0 0.1
2017-Nov-11 17:29S 27°23' E 153°10'0 0.0
2017-Nov-11 16:59S 27°23' E 153°10'0 0.0
2017-Nov-11 16:23S 27°23' E 153°10'0 0.0
2017-Nov-11 15:59S 27°23' E 153°10'0 0.0
2017-Nov-11 15:29S 27°23' E 153°10'0 0.0
2017-Nov-11 14:59S 27°23' E 153°10'0 0.0
2017-Nov-11 14:29S 27°23' E 153°10'0 0.0
2017-Nov-11 13:59S 27°23' E 153°10'0 0.0
2017-Nov-11 13:26S 27°23' E 153°10'0 0.0
2017-Nov-11 12:59S 27°23' E 153°10'0 0.0
2017-Nov-11 12:29S 27°23' E 153°10'0 0.0
2017-Nov-11 11:59S 27°23' E 153°10'0 0.0
2017-Nov-11 11:29S 27°23' E 153°10'0 0.0
2017-Nov-11 10:59S 27°23' E 153°10'0 0.0
2017-Nov-11 10:08S 27°23' E 153°10'0 0.0
2017-Nov-11 09:56S 27°23' E 153°10'0 0.0
2017-Nov-11 09:20S 27°23' E 153°10'0 0.0
2017-Nov-11 08:56S 27°23' E 153°10'0 0.0
2017-Nov-11 08:29S 27°23' E 153°10'0 0.0
2017-Nov-11 07:56S 27°23' E 153°10'0 0.0
2017-Nov-11 07:26S 27°23' E 153°10'0 0.0
2017-Nov-11 06:59S 27°23' E 153°10'0 0.0
2017-Nov-11 06:29S 27°23' E 153°10'0 0.0
2017-Nov-11 05:59S 27°23' E 153°10'0 0.0
2017-Nov-11 05:26S 27°23' E 153°10'0 0.0
2017-Nov-11 04:56S 27°23' E 153°10'0 0.0
2017-Nov-11 04:29S 27°23' E 153°10'0 0.0
2017-Nov-11 03:20S 27°23' E 153°10'0 0.0
2017-Nov-11 02:59S 27°23' E 153°10'0 0.0
2017-Nov-11 02:30S 27°23' E 153°10'1 1.9
2017-Nov-11 02:00S 27°22' E 153°10'510.6
2017-Nov-11 01:31S 27°17' E 153°13'612.1
2017-Nov-11 01:00S 27°15' E 153°19'814.9
2017-Nov-11 00:30S 27°07' E 153°20'714.2
2017-Nov-11 00:00S 27°02' E 153°15'715.0
2017-Nov-10 23:30S 26°55' E 153°12'  
Track history (hours):
 
Tides and Currents Weather Stations Pressure Air Temp Water Temp Dewpoint Dewpoint Depression Visibility Wind Speed Wind Dir Waves Ship Positions

Galaxy Ace

Last reported at 2017-Nov-18 23:31 UTC. Time now 2017-Nov-24 20:47 UTC.
Position S 27°38' E 153°57'.

Length 199 m; draft 7.7 m.

Type: Cargo ship. MMSI: 636015819.

Date/timePositionNaut miles runAvg speedWind from/ knotsBaromVisibWave heightAir tempDewpointWater temp
2017-Nov-18 23:31S 27°38' E 153°57'018.2
2017-Nov-18 23:30S 27°38' E 153°57'917.5
2017-Nov-18 23:00S 27°47' E 153°56'917.3
2017-Nov-18 22:30S 27°55' E 153°56'917.6
2017-Nov-18 22:01S 28°04' E 153°56'917.4
2017-Nov-18 21:30S 28°13' E 153°55'917.4
2017-Nov-18 21:00S 28°22' E 153°55'917.3
2017-Nov-18 20:30S 28°30' E 153°54'817.0
2017-Nov-18 20:00S 28°39' E 153°54'23916.4
2017-Nov-18 05:26S 32°31' E 152°48'717.2
2017-Nov-18 05:01S 32°38' E 152°45'917.0
2017-Nov-18 04:30S 32°46' E 152°41'917.0
2017-Nov-18 04:00S 32°53' E 152°37'917.6
2017-Nov-18 03:31S 33°02' E 152°33'917.7
2017-Nov-18 03:00S 33°10' E 152°29'917.9
2017-Nov-18 02:30S 33°18' E 152°25'33017.1
2017-Nov-17 07:15S 38°12' E 149°20'617.6
2017-Nov-17 06:54S 38°16' E 149°14'717.0
2017-Nov-17 06:30S 38°20' E 149°07'817.1
2017-Nov-17 06:00S 38°24' E 148°58'917.2
2017-Nov-17 05:29S 38°30' E 148°48'817.1
2017-Nov-17 05:00S 38°34' E 148°40'917.3
2017-Nov-17 04:29S 38°39' E 148°30'917.4
2017-Nov-17 04:00S 38°43' E 148°21'917.9
2017-Nov-17 03:30S 38°47' E 148°11'1618.6
2017-Nov-17 02:37S 38°53' E 147°51'218.7
2017-Nov-17 02:30S 38°54' E 147°48'1018.5
2017-Nov-17 01:58S 38°57' E 147°36'1218.3
2017-Nov-17 01:20S 39°02' E 147°23'13114.6
2017-Nov-16 16:21S 38°18' E 144°44'1512.7
2017-Nov-16 15:10S 38°06' E 144°55'419.0
2017-Nov-16 14:58S 38°02' E 144°55'716.1
2017-Nov-16 14:30S 37°55' E 144°55'4 8.2
2017-Nov-16 14:01S 37°51' E 144°54'0 0.0
2017-Nov-16 13:29S 37°51' E 144°54'0 0.0
2017-Nov-16 12:38S 37°51' E 144°54'0 0.0
2017-Nov-16 12:14S 37°51' E 144°54'0 0.0
2017-Nov-16 11:53S 37°51' E 144°54'0 0.0
2017-Nov-16 10:32S 37°51' E 144°54'0 0.0
2017-Nov-16 09:32S 37°51' E 144°54'0 0.0
2017-Nov-16 09:29S 37°51' E 144°54'0 0.0
2017-Nov-16 06:11S 37°51' E 144°54'0 0.1
2017-Nov-15 22:28S 37°51' E 144°55'2 4.8
2017-Nov-15 22:00S 37°53' E 144°56'713.4
2017-Nov-15 21:29S 37°60' E 144°55'1216.2
2017-Nov-15 20:47S 38°11' E 144°55'11410.5
2017-Nov-15 09:55S 38°59' E 147°08'716.1
2017-Nov-15 09:30S 38°57' E 147°16'816.2
2017-Nov-15 09:00S 38°55' E 147°26'1016.7
2017-Nov-15 08:25S 38°51' E 147°38'916.7
2017-Nov-15 07:54S 38°49' E 147°48'816.3
2017-Nov-15 07:27S 38°46' E 147°57'916.4
2017-Nov-15 06:55S 38°43' E 148°08'716.5
2017-Nov-15 06:30S 38°40' E 148°16'816.6
2017-Nov-15 05:59S 38°35' E 148°24'917.2
2017-Nov-15 05:29S 38°30' E 148°33'1218.0
2017-Nov-15 04:50S 38°23' E 148°45'1519.9
2017-Nov-15 04:04S 38°16' E 149°03'919.8
2017-Nov-15 03:37S 38°11' E 149°12'319.7
2017-Nov-15 03:29S 38°10' E 149°15'1020.1
2017-Nov-15 03:00S 38°04' E 149°25'1120.1
2017-Nov-15 02:28S 37°58' E 149°36'256 4.9
2017-Nov-12 22:34S 34°01' E 151°34'118.5
2017-Nov-12 22:30S 33°60' E 151°34'5518.4
2017-Nov-12 19:31S 33°15' E 152°13'017.9
2017-Nov-12 19:30S 33°14' E 152°13'918.5
2017-Nov-12 19:01S 33°07' E 152°19'918.6
2017-Nov-12 18:30S 32°59' E 152°25'918.8
2017-Nov-12 18:00S 32°52' E 152°32'918.7
2017-Nov-12 17:30S 32°44' E 152°38'918.6
2017-Nov-12 17:01S 32°36' E 152°44'24519.2
2017-Nov-12 04:13S 28°38' E 153°54'519.5
2017-Nov-12 03:56S 28°33' E 153°54'819.3
2017-Nov-12 03:30S 28°25' E 153°53'1019.3
2017-Nov-12 03:01S 28°15' E 153°52'1019.1
2017-Nov-12 02:31S 28°06' E 153°52'1019.2
2017-Nov-12 02:01S 27°56' E 153°51'1019.3
2017-Nov-12 01:31S 27°47' E 153°50'1019.0
2017-Nov-12 01:00S 27°37' E 153°49'918.8
2017-Nov-12 00:31S 27°28' E 153°47'918.4
2017-Nov-12 00:01S 27°19' E 153°44'1518.3
2017-Nov-11 23:10S 27°05' E 153°38'1818.0
2017-Nov-11 22:12S 26°52' E 153°25'618.3
2017-Nov-11 21:53S 26°48' E 153°20'10 6.8
2017-Nov-11 20:23S 26°53' E 153°10'818.3
2017-Nov-11 19:58S 26°60' E 153°14'817.1
2017-Nov-11 19:30S 27°06' E 153°20'817.0
2017-Nov-11 19:00S 27°15' E 153°19'815.7
2017-Nov-11 18:31S 27°19' E 153°12'4 8.5
2017-Nov-11 18:01S 27°23' E 153°10'0 0.1
2017-Nov-11 17:29S 27°23' E 153°10'0 0.0
2017-Nov-11 16:59S 27°23' E 153°10'0 0.0
2017-Nov-11 16:23S 27°23' E 153°10'0 0.0
2017-Nov-11 15:59S 27°23' E 153°10'0 0.0
2017-Nov-11 15:29S 27°23' E 153°10'0 0.0
2017-Nov-11 14:59S 27°23' E 153°10'0 0.0
2017-Nov-11 14:29S 27°23' E 153°10'0 0.0
2017-Nov-11 13:59S 27°23' E 153°10'0 0.0
2017-Nov-11 13:26S 27°23' E 153°10'0 0.0
2017-Nov-11 12:59S 27°23' E 153°10'0 0.0
2017-Nov-11 12:29S 27°23' E 153°10'0 0.0
2017-Nov-11 11:59S 27°23' E 153°10'0 0.0
2017-Nov-11 11:29S 27°23' E 153°10'0 0.0
2017-Nov-11 10:59S 27°23' E 153°10'0 0.0
2017-Nov-11 10:08S 27°23' E 153°10'0 0.0
2017-Nov-11 09:56S 27°23' E 153°10'0 0.0
2017-Nov-11 09:20S 27°23' E 153°10'0 0.0
2017-Nov-11 08:56S 27°23' E 153°10'0 0.0
2017-Nov-11 08:29S 27°23' E 153°10'0 0.0
2017-Nov-11 07:56S 27°23' E 153°10'0 0.0
2017-Nov-11 07:26S 27°23' E 153°10'0 0.0
2017-Nov-11 06:59S 27°23' E 153°10'0 0.0
2017-Nov-11 06:29S 27°23' E 153°10'0 0.0
2017-Nov-11 05:59S 27°23' E 153°10'0 0.0
2017-Nov-11 05:26S 27°23' E 153°10'0 0.0
2017-Nov-11 04:56S 27°23' E 153°10'0 0.0
2017-Nov-11 04:29S 27°23' E 153°10'0 0.0
2017-Nov-11 03:20S 27°23' E 153°10'0 0.0
2017-Nov-11 02:59S 27°23' E 153°10'0 0.0
2017-Nov-11 02:30S 27°23' E 153°10'1 1.9
2017-Nov-11 02:00S 27°22' E 153°10'510.6
2017-Nov-11 01:31S 27°17' E 153°13'612.1
2017-Nov-11 01:00S 27°15' E 153°19'814.9
2017-Nov-11 00:30S 27°07' E 153°20'714.2
2017-Nov-11 00:00S 27°02' E 153°15'715.0
2017-Nov-10 23:30S 26°55' E 153°12'  

Dump ship's entire track history